KATW Airport Information

Runway Information
Runway 03 Length 8002 ft width 150 ft
Elevation 888 ft Threshold 0 ft Heading 26
Runway 21 Length 8002 ft Width 150 ft
Elevation 878 ft Threshold 0 ft Heading 206
Runway 11 Length 6501 ft width 150 ft
Elevation 918 ft Threshold 0 ft Heading 116
Runway 29 Length 6501 ft Width 150 ft
Elevation 858 ft Threshold 0 ft Heading 296
Airport Frequencies
Type A/D Name GREEN BAY Frequency 126.3 MHZ
Type ATIS Name ATIS Frequency 127.15 MHZ
Type CTAF Name CTAF Frequency 119.6 MHZ
Type GND Name APPLETON G Frequency 121.7 MHZ
Type TWR Name APPLETON T Frequency 119.6 MHZ
Type UNIC Name UNICOM Frequency 122.95 MHZ
Airport Navaids
Airport Weather Information & NOTAM
ADDS - METARS form results

(0737 UTC 18 September 2021)
Data provider http://aviationweather.gov/metar/data/
 
METAR text: KATW 180735Z AUTO 01005KT 10SM CLR 11/06 A3021 RMK AO2
Conditions at: KATW (APPLETON/OUTAGAM, WI, US) observed 0735 UTC 18 September 2021
Temperature: 11.0°C (52°F)
Dewpoint: 6.0°C (43°F) [RH = 71%]
Pressure (altimeter): 30.21 inches Hg (1023.1 mb)
Winds: from the N (10 degrees) at 6 MPH (5 knots; 2.6 m/s)
Visibility: 10 or more miles (16+ km)
Ceiling: at least 12,000 feet AGL
Clouds: sky clear below 12,000 feet AGL
Weather: automated observation with no human augmentation;
there may or may not be significant weather present at this time

METAR text: KATW 180715Z AUTO 35005KT 10SM CLR 11/06 A3021 RMK AO2
Conditions at: KATW (APPLETON/OUTAGAM, WI, US) observed 0715 UTC 18 September 2021
Temperature: 11.0°C (52°F)
Dewpoint: 6.0°C (43°F) [RH = 71%]
Pressure (altimeter): 30.21 inches Hg (1023.1 mb)
Winds: from the N (350 degrees) at 6 MPH (5 knots; 2.6 m/s)
Visibility: 10 or more miles (16+ km)
Ceiling: at least 12,000 feet AGL
Clouds: sky clear below 12,000 feet AGL
Weather: automated observation with no human augmentation;
there may or may not be significant weather present at this time

METAR text: KATW 180655Z AUTO 36006KT 10SM CLR 11/06 A3020 RMK AO2
Conditions at: KATW (APPLETON/OUTAGAM, WI, US) observed 0655 UTC 18 September 2021
Temperature: 11.0°C (52°F)
Dewpoint: 6.0°C (43°F) [RH = 71%]
Pressure (altimeter): 30.20 inches Hg (1022.8 mb)
Winds: from the N (360 degrees) at 7 MPH (6 knots; 3.1 m/s)
Visibility: 10 or more miles (16+ km)
Ceiling: at least 12,000 feet AGL
Clouds: sky clear below 12,000 feet AGL
Weather: automated observation with no human augmentation;
there may or may not be significant weather present at this time

Forecast for: KATW (APPLETON/OUTAGAM, WI, US)
Text: KATW 180520Z 1806/1906 32005KT P6SM SCT140
Forecast period: 0600 to 0800 UTC 18 September 2021
Forecast type: FROM: standard forecast or significant change
Winds: from the NW (320 degrees) at 6 MPH (5 knots; 2.6 m/s)
Visibility: 6 or more miles (10+ km)
Ceiling: at least 12,000 feet AGL
Clouds: scattered clouds at 14000 feet AGL
Weather: no significant weather forecast for this period
Text: FM180800 01003KT P6SM SKC
Forecast period: 0800 to 1300 UTC 18 September 2021
Forecast type: FROM: standard forecast or significant change
Winds: from the N (10 degrees) at 3 MPH (3 knots; 1.5 m/s)
Visibility: 6 or more miles (10+ km)
Clouds: clear skies
Weather: no significant weather forecast for this period
Text: FM181300 06005KT P6SM SKC
Forecast period: 1300 to 1600 UTC 18 September 2021
Forecast type: FROM: standard forecast or significant change
Winds: from the ENE (60 degrees) at 6 MPH (5 knots; 2.6 m/s)
Visibility: 6 or more miles (10+ km)
Clouds: clear skies
Weather: no significant weather forecast for this period
Text: FM181600 12006KT P6SM SKC
Forecast period: 1600 to 1800 UTC 18 September 2021
Forecast type: FROM: standard forecast or significant change
Winds: from the ESE (120 degrees) at 7 MPH (6 knots; 3.1 m/s)
Visibility: 6 or more miles (10+ km)
Clouds: clear skies
Weather: no significant weather forecast for this period
Text: FM181800 14003KT P6SM SKC
Forecast period: 1800 UTC 18 September 2021 to 0600 UTC 19 September 2021
Forecast type: FROM: standard forecast or significant change
Winds: from the SE (140 degrees) at 3 MPH (3 knots; 1.5 m/s)
Visibility: 6 or more miles (10+ km)
Clouds: clear skies
Weather: no significant weather forecast for this period